sensor_id;sensor_type;location;lat;lon;timestamp;temperature;humidity
3550;DHT22;45572;48.804;8.330;2023-04-09T07:45:00;23.30;44.70
3550;DHT22;45572;48.804;8.330;2023-04-09T07:47:29;22.00;46.90
3550;DHT22;45572;48.804;8.330;2023-04-09T07:49:57;22.80;46.90
3550;DHT22;45572;48.804;8.330;2023-04-09T07:52:25;23.30;46.40
3550;DHT22;45572;48.804;8.330;2023-04-09T07:54:53;24.20;45.30
3550;DHT22;45572;48.804;8.330;2023-04-09T07:57:21;25.30;46.10
3550;DHT22;45572;48.804;8.330;2023-04-09T07:59:52;25.60;42.30
3550;DHT22;45572;48.804;8.330;2023-04-09T08:02:22;26.60;42.10
3550;DHT22;45572;48.804;8.330;2023-04-09T08:04:51;27.30;41.70
3550;DHT22;45572;48.804;8.330;2023-04-09T08:07:31;28.10;39.00
3550;DHT22;45572;48.804;8.330;2023-04-09T08:10:00;28.70;39.90
3550;DHT22;45572;48.804;8.330;2023-04-09T08:12:28;28.30;39.80
3550;DHT22;45572;48.804;8.330;2023-04-09T08:14:56;28.30;40.90
3550;DHT22;45572;48.804;8.330;2023-04-09T08:17:26;28.80;38.70
3550;DHT22;45572;48.804;8.330;2023-04-09T08:19:54;28.30;38.00
3550;DHT22;45572;48.804;8.330;2023-04-09T08:22:24;26.90;41.40
3550;DHT22;45572;48.804;8.330;2023-04-09T08:24:52;25.50;40.50
3550;DHT22;45572;48.804;8.330;2023-04-09T08:27:20;23.50;43.80
3550;DHT22;45572;48.804;8.330;2023-04-09T08:29:48;23.30;47.20
3550;DHT22;45572;48.804;8.330;2023-04-09T08:32:16;25.20;44.00
3550;DHT22;45572;48.804;8.330;2023-04-09T08:34:46;26.20;43.40
3550;DHT22;45572;48.804;8.330;2023-04-09T08:37:14;25.90;44.00
3550;DHT22;45572;48.804;8.330;2023-04-09T08:39:42;26.90;43.40
3550;DHT22;45572;48.804;8.330;2023-04-09T08:42:11;27.90;40.90
3550;DHT22;45572;48.804;8.330;2023-04-09T08:44:42;27.40;41.30
3550;DHT22;45572;48.804;8.330;2023-04-09T08:47:11;26.50;42.90
3550;DHT22;45572;48.804;8.330;2023-04-09T08:49:39;25.90;43.90
3550;DHT22;45572;48.804;8.330;2023-04-09T08:52:09;24.90;44.20
3550;DHT22;45572;48.804;8.330;2023-04-09T08:54:37;23.90;46.10
3550;DHT22;45572;48.804;8.330;2023-04-09T08:57:05;23.00;48.20
3550;DHT22;45572;48.804;8.330;2023-04-09T08:59:33;23.20;49.30
3550;DHT22;45572;48.804;8.330;2023-04-09T09:02:06;24.20;45.00
3550;DHT22;45572;48.804;8.330;2023-04-09T09:04:50;25.00;40.30
3550;DHT22;45572;48.804;8.330;2023-04-09T09:07:22;24.40;37.50
3550;DHT22;45572;48.804;8.330;2023-04-09T09:09:53;24.90;39.40
3550;DHT22;45572;48.804;8.330;2023-04-09T09:12:32;24.70;40.70
3550;DHT22;45572;48.804;8.330;2023-04-09T09:15:00;22.40;41.10
3550;DHT22;45572;48.804;8.330;2023-04-09T09:17:30;23.70;40.00
3550;DHT22;45572;48.804;8.330;2023-04-09T09:19:58;24.10;36.20
3550;DHT22;45572;48.804;8.330;2023-04-09T09:22:28;24.20;36.30
3550;DHT22;45572;48.804;8.330;2023-04-09T09:24:57;24.00;35.80
3550;DHT22;45572;48.804;8.330;2023-04-09T09:27:34;24.00;36.80
3550;DHT22;45572;48.804;8.330;2023-04-09T09:30:06;24.20;37.50
3550;DHT22;45572;48.804;8.330;2023-04-09T09:32:34;23.50;36.20
3550;DHT22;45572;48.804;8.330;2023-04-09T09:35:04;21.10;40.60
3550;DHT22;45572;48.804;8.330;2023-04-09T09:37:33;19.60;42.00
3550;DHT22;45572;48.804;8.330;2023-04-09T09:40:02;18.40;43.60
3550;DHT22;45572;48.804;8.330;2023-04-09T09:42:30;17.80;45.40
3550;DHT22;45572;48.804;8.330;2023-04-09T09:44:58;17.80;45.00
3550;DHT22;45572;48.804;8.330;2023-04-09T09:47:28;17.60;45.20
3550;DHT22;45572;48.804;8.330;2023-04-09T09:49:58;17.10;46.20
3550;DHT22;45572;48.804;8.330;2023-04-09T09:52:26;16.60;48.50
3550;DHT22;45572;48.804;8.330;2023-04-09T09:54:55;16.60;48.30
3550;DHT22;45572;48.804;8.330;2023-04-09T09:57:28;16.50;48.50
3550;DHT22;45572;48.804;8.330;2023-04-09T10:00:00;16.40;48.90
3550;DHT22;45572;48.804;8.330;2023-04-09T10:02:50;16.20;49.00
3550;DHT22;45572;48.804;8.330;2023-04-09T10:05:22;16.00;49.90
3550;DHT22;45572;48.804;8.330;2023-04-09T10:07:53;16.60;50.80
3550;DHT22;45572;48.804;8.330;2023-04-09T10:10:23;16.90;47.50
3550;DHT22;45572;48.804;8.330;2023-04-09T10:12:51;16.90;49.10
3550;DHT22;45572;48.804;8.330;2023-04-09T10:15:20;17.00;48.10
3550;DHT22;45572;48.804;8.330;2023-04-09T10:17:49;16.90;47.90
3550;DHT22;45572;48.804;8.330;2023-04-09T10:20:23;16.70;48.00
3550;DHT22;45572;48.804;8.330;2023-04-09T10:22:54;16.50;48.20
3550;DHT22;45572;48.804;8.330;2023-04-09T10:25:23;16.40;49.20
3550;DHT22;45572;48.804;8.330;2023-04-09T10:27:59;16.20;49.40
3550;DHT22;45572;48.804;8.330;2023-04-09T10:30:31;16.20;49.50
3550;DHT22;45572;48.804;8.330;2023-04-09T10:33:09;17.00;50.10
3550;DHT22;45572;48.804;8.330;2023-04-09T10:35:38;16.80;48.20
3550;DHT22;45572;48.804;8.330;2023-04-09T10:38:07;18.10;47.90
3550;DHT22;45572;48.804;8.330;2023-04-09T10:40:40;18.40;46.00
3550;DHT22;45572;48.804;8.330;2023-04-09T10:43:09;18.50;46.10
3550;DHT22;45572;48.804;8.330;2023-04-09T10:45:39;18.70;46.60
3550;DHT22;45572;48.804;8.330;2023-04-09T10:48:13;19.00;44.60
3550;DHT22;45572;48.804;8.330;2023-04-09T10:50:42;18.40;45.20
3550;DHT22;45572;48.804;8.330;2023-04-09T10:53:21;18.50;44.90
3550;DHT22;45572;48.804;8.330;2023-04-09T10:55:52;18.80;43.90
3550;DHT22;45572;48.804;8.330;2023-04-09T10:58:20;19.20;45.40
3550;DHT22;45572;48.804;8.330;2023-04-09T11:00:49;19.80;43.40
3550;DHT22;45572;48.804;8.330;2023-04-09T11:03:26;19.20;43.40
3550;DHT22;45572;48.804;8.330;2023-04-09T11:06:00;19.70;42.30
3550;DHT22;45572;48.804;8.330;2023-04-09T11:08:29;19.60;42.50
3550;DHT22;45572;48.804;8.330;2023-04-09T11:10:58;19.30;42.50
3550;DHT22;45572;48.804;8.330;2023-04-09T11:13:29;19.70;42.40
3550;DHT22;45572;48.804;8.330;2023-04-09T11:15:58;19.80;42.80
3550;DHT22;45572;48.804;8.330;2023-04-09T11:18:29;20.40;41.80
3550;DHT22;45572;48.804;8.330;2023-04-09T11:21:01;19.50;42.60
3550;DHT22;45572;48.804;8.330;2023-04-09T11:23:31;19.40;43.00
3550;DHT22;45572;48.804;8.330;2023-04-09T11:25:59;19.00;42.70
3550;DHT22;45572;48.804;8.330;2023-04-09T11:28:28;17.70;45.50
3550;DHT22;45572;48.804;8.330;2023-04-09T11:30:58;17.20;45.50
3550;DHT22;45572;48.804;8.330;2023-04-09T11:33:32;16.80;46.70
3550;DHT22;45572;48.804;8.330;2023-04-09T11:36:01;16.10;47.80
3550;DHT22;45572;48.804;8.330;2023-04-09T11:38:31;15.60;49.50
3550;DHT22;45572;48.804;8.330;2023-04-09T11:41:00;15.30;49.60
3550;DHT22;45572;48.804;8.330;2023-04-09T11:43:29;15.00;50.10
3550;DHT22;45572;48.804;8.330;2023-04-09T11:45:58;15.60;49.80
3550;DHT22;45572;48.804;8.330;2023-04-09T11:48:27;16.30;47.90
3550;DHT22;45572;48.804;8.330;2023-04-09T11:50:57;16.50;49.60
3550;DHT22;45572;48.804;8.330;2023-04-09T11:53:29;17.00;46.90
3550;DHT22;45572;48.804;8.330;2023-04-09T11:56:01;16.70;47.50
3550;DHT22;45572;48.804;8.330;2023-04-09T11:58:29;16.80;47.10
3550;DHT22;45572;48.804;8.330;2023-04-09T12:00:58;16.90;46.80
3550;DHT22;45572;48.804;8.330;2023-04-09T12:03:28;16.20;47.40
3550;DHT22;45572;48.804;8.330;2023-04-09T12:06:01;15.70;48.60
3550;DHT22;45572;48.804;8.330;2023-04-09T12:08:30;16.00;48.20
3550;DHT22;45572;48.804;8.330;2023-04-09T12:11:07;16.10;48.50
3550;DHT22;45572;48.804;8.330;2023-04-09T12:13:37;16.30;48.20
3550;DHT22;45572;48.804;8.330;2023-04-09T12:16:09;16.50;48.30
3550;DHT22;45572;48.804;8.330;2023-04-09T12:18:39;16.40;48.70
3550;DHT22;45572;48.804;8.330;2023-04-09T12:21:08;16.40;48.30
3550;DHT22;45572;48.804;8.330;2023-04-09T12:23:36;16.50;48.90
3550;DHT22;45572;48.804;8.330;2023-04-09T12:26:05;16.60;47.50
3550;DHT22;45572;48.804;8.330;2023-04-09T12:28:33;16.60;47.90
3550;DHT22;45572;48.804;8.330;2023-04-09T12:31:02;16.40;48.50
3550;DHT22;45572;48.804;8.330;2023-04-09T12:33:30;16.40;48.60
3550;DHT22;45572;48.804;8.330;2023-04-09T12:35:58;16.50;49.90
3550;DHT22;45572;48.804;8.330;2023-04-09T12:38:27;16.30;48.80
3550;DHT22;45572;48.804;8.330;2023-04-09T12:40:56;16.70;49.70
3550;DHT22;45572;48.804;8.330;2023-04-09T12:43:24;16.60;49.30
3550;DHT22;45572;48.804;8.330;2023-04-09T12:45:52;16.70;48.60
3550;DHT22;45572;48.804;8.330;2023-04-09T12:48:20;16.60;48.70
3550;DHT22;45572;48.804;8.330;2023-04-09T12:50:48;16.30;48.80
3550;DHT22;45572;48.804;8.330;2023-04-09T12:53:17;15.90;49.70
3550;DHT22;45572;48.804;8.330;2023-04-09T12:55:46;15.90;50.00
3550;DHT22;45572;48.804;8.330;2023-04-09T12:58:14;15.90;49.80
3550;DHT22;45572;48.804;8.330;2023-04-09T13:00:42;15.90;49.80
3550;DHT22;45572;48.804;8.330;2023-04-09T13:03:10;16.00;51.40
3550;DHT22;45572;48.804;8.330;2023-04-09T13:05:41;16.00;49.50
3550;DHT22;45572;48.804;8.330;2023-04-09T13:08:09;16.10;49.20
3550;DHT22;45572;48.804;8.330;2023-04-09T13:10:37;16.40;50.00
3550;DHT22;45572;48.804;8.330;2023-04-09T13:13:07;16.50;50.70
3550;DHT22;45572;48.804;8.330;2023-04-09T13:15:38;16.70;49.40
3550;DHT22;45572;48.804;8.330;2023-04-09T13:18:08;17.00;48.90
3550;DHT22;45572;48.804;8.330;2023-04-09T13:20:37;17.40;49.80
3550;DHT22;45572;48.804;8.330;2023-04-09T13:23:06;17.70;50.10
3550;DHT22;45572;48.804;8.330;2023-04-09T13:25:34;17.90;48.30
3550;DHT22;45572;48.804;8.330;2023-04-09T13:28:02;17.90;48.50
3550;DHT22;45572;48.804;8.330;2023-04-09T13:30:32;17.70;48.60
3550;DHT22;45572;48.804;8.330;2023-04-09T13:33:00;17.30;46.90
3550;DHT22;45572;48.804;8.330;2023-04-09T13:35:29;16.90;47.70
3550;DHT22;45572;48.804;8.330;2023-04-09T13:37:57;16.80;48.70
3550;DHT22;45572;48.804;8.330;2023-04-09T13:40:25;16.60;48.00
3550;DHT22;45572;48.804;8.330;2023-04-09T13:42:53;16.40;47.70
3550;DHT22;45572;48.804;8.330;2023-04-09T13:45:21;16.50;49.20
3550;DHT22;45572;48.804;8.330;2023-04-09T13:47:51;16.50;50.40
3550;DHT22;45572;48.804;8.330;2023-04-09T13:50:19;16.40;48.60
3550;DHT22;45572;48.804;8.330;2023-04-09T13:52:47;16.30;49.30
3550;DHT22;45572;48.804;8.330;2023-04-09T13:55:15;16.20;50.10
3550;DHT22;45572;48.804;8.330;2023-04-09T13:57:43;16.10;49.50
3550;DHT22;45572;48.804;8.330;2023-04-09T14:00:12;16.10;49.80
3550;DHT22;45572;48.804;8.330;2023-04-09T14:02:40;15.90;48.40
3550;DHT22;45572;48.804;8.330;2023-04-09T14:05:10;15.90;49.20
3550;DHT22;45572;48.804;8.330;2023-04-09T14:07:38;15.80;49.00
3550;DHT22;45572;48.804;8.330;2023-04-09T14:10:07;15.80;48.70
3550;DHT22;45572;48.804;8.330;2023-04-09T14:12:35;15.80;49.40
3550;DHT22;45572;48.804;8.330;2023-04-09T14:15:03;15.90;50.00
3550;DHT22;45572;48.804;8.330;2023-04-09T14:17:32;16.10;48.80
3550;DHT22;45572;48.804;8.330;2023-04-09T14:20:00;16.20;49.50
3550;DHT22;45572;48.804;8.330;2023-04-09T14:22:30;16.20;49.90
3550;DHT22;45572;48.804;8.330;2023-04-09T14:24:58;16.00;49.20
3550;DHT22;45572;48.804;8.330;2023-04-09T14:27:27;16.00;50.10
3550;DHT22;45572;48.804;8.330;2023-04-09T14:29:55;15.80;49.80
3550;DHT22;45572;48.804;8.330;2023-04-09T14:32:23;15.80;48.90
3550;DHT22;45572;48.804;8.330;2023-04-09T14:34:51;15.70;49.70
3550;DHT22;45572;48.804;8.330;2023-04-09T14:37:19;15.70;50.60
3550;DHT22;45572;48.804;8.330;2023-04-09T14:39:49;15.80;48.90
3550;DHT22;45572;48.804;8.330;2023-04-09T14:42:17;15.70;49.50
3550;DHT22;45572;48.804;8.330;2023-04-09T14:44:45;15.60;49.30
3550;DHT22;45572;48.804;8.330;2023-04-09T14:47:16;15.60;49.40
3550;DHT22;45572;48.804;8.330;2023-04-09T14:49:46;15.70;50.40
3550;DHT22;45572;48.804;8.330;2023-04-09T14:52:14;15.80;50.60
3550;DHT22;45572;48.804;8.330;2023-04-09T14:54:42;15.80;50.20
3550;DHT22;45572;48.804;8.330;2023-04-09T14:57:11;15.90;49.80
3550;DHT22;45572;48.804;8.330;2023-04-09T14:59:39;15.80;50.00
3550;DHT22;45572;48.804;8.330;2023-04-09T15:02:07;15.70;50.20
3550;DHT22;45572;48.804;8.330;2023-04-09T15:04:37;15.70;50.60
3550;DHT22;45572;48.804;8.330;2023-04-09T15:07:05;15.80;50.50
3550;DHT22;45572;48.804;8.330;2023-04-09T15:09:33;15.90;49.10
3550;DHT22;45572;48.804;8.330;2023-04-09T15:12:01;16.00;49.30
3550;DHT22;45572;48.804;8.330;2023-04-09T15:14:30;15.90;49.60
3550;DHT22;45572;48.804;8.330;2023-04-09T15:16:59;15.90;48.90
3550;DHT22;45572;48.804;8.330;2023-04-09T15:19:27;16.00;48.70
3550;DHT22;45572;48.804;8.330;2023-04-09T15:21:55;16.00;47.80
3550;DHT22;45572;48.804;8.330;2023-04-09T15:24:23;16.00;49.00
3550;DHT22;45572;48.804;8.330;2023-04-09T15:26:52;16.00;49.40
3550;DHT22;45572;48.804;8.330;2023-04-09T15:29:20;16.10;48.20
3550;DHT22;45572;48.804;8.330;2023-04-09T15:31:51;16.10;49.10
3550;DHT22;45572;48.804;8.330;2023-04-09T15:34:19;16.10;48.30
3550;DHT22;45572;48.804;8.330;2023-04-09T15:36:49;16.20;48.40
3550;DHT22;45572;48.804;8.330;2023-04-09T15:39:17;16.10;48.80
3550;DHT22;45572;48.804;8.330;2023-04-09T15:41:45;16.20;48.50
3550;DHT22;45572;48.804;8.330;2023-04-09T15:44:13;16.10;48.30
3550;DHT22;45572;48.804;8.330;2023-04-09T15:46:41;15.80;49.10
3550;DHT22;45572;48.804;8.330;2023-04-09T15:49:10;15.90;49.10
3550;DHT22;45572;48.804;8.330;2023-04-09T15:51:38;16.00;49.40
3550;DHT22;45572;48.804;8.330;2023-04-09T15:54:06;16.10;49.10
3550;DHT22;45572;48.804;8.330;2023-04-09T15:56:35;16.00;49.00
3550;DHT22;45572;48.804;8.330;2023-04-09T15:59:05;16.10;49.30
3550;DHT22;45572;48.804;8.330;2023-04-09T16:01:34;16.10;49.10
3550;DHT22;45572;48.804;8.330;2023-04-09T16:04:03;16.00;48.90
3550;DHT22;45572;48.804;8.330;2023-04-09T16:06:33;16.10;49.00
3550;DHT22;45572;48.804;8.330;2023-04-09T16:09:02;16.20;49.40
3550;DHT22;45572;48.804;8.330;2023-04-09T16:11:30;16.00;48.60
3550;DHT22;45572;48.804;8.330;2023-04-09T16:13:59;16.10;48.40
3550;DHT22;45572;48.804;8.330;2023-04-09T16:16:27;16.10;48.50
3550;DHT22;45572;48.804;8.330;2023-04-09T16:18:56;16.10;47.90
3550;DHT22;45572;48.804;8.330;2023-04-09T16:21:26;16.10;48.90
3550;DHT22;45572;48.804;8.330;2023-04-09T16:23:56;16.00;49.10
3550;DHT22;45572;48.804;8.330;2023-04-09T16:26:24;16.00;48.70
3550;DHT22;45572;48.804;8.330;2023-04-09T16:28:52;16.00;49.00
3550;DHT22;45572;48.804;8.330;2023-04-09T16:31:21;16.00;49.10
3550;DHT22;45572;48.804;8.330;2023-04-09T16:33:49;16.00;49.70
3550;DHT22;45572;48.804;8.330;2023-04-09T16:36:17;15.90;50.00
3550;DHT22;45572;48.804;8.330;2023-04-09T16:38:47;15.80;49.30
3550;DHT22;45572;48.804;8.330;2023-04-09T16:41:16;15.80;49.00
3550;DHT22;45572;48.804;8.330;2023-04-09T16:43:44;15.70;49.00
3550;DHT22;45572;48.804;8.330;2023-04-09T16:46:16;15.60;49.10
3550;DHT22;45572;48.804;8.330;2023-04-09T16:48:44;15.50;49.20
3550;DHT22;45572;48.804;8.330;2023-04-09T16:51:12;15.40;49.40
3550;DHT22;45572;48.804;8.330;2023-04-09T16:53:40;15.40;49.80
3550;DHT22;45572;48.804;8.330;2023-04-09T16:56:08;15.50;49.50
3550;DHT22;45572;48.804;8.330;2023-04-09T16:58:38;15.40;50.00
3550;DHT22;45572;48.804;8.330;2023-04-09T17:01:09;15.30;50.10
3550;DHT22;45572;48.804;8.330;2023-04-09T17:03:37;15.40;50.10
3550;DHT22;45572;48.804;8.330;2023-04-09T17:06:05;15.40;50.50
3550;DHT22;45572;48.804;8.330;2023-04-09T17:08:36;15.30;50.20
3550;DHT22;45572;48.804;8.330;2023-04-09T17:11:04;15.30;50.10
3550;DHT22;45572;48.804;8.330;2023-04-09T17:13:34;15.30;50.50
3550;DHT22;45572;48.804;8.330;2023-04-09T17:16:05;15.20;51.00
3550;DHT22;45572;48.804;8.330;2023-04-09T17:18:35;15.20;50.50
3550;DHT22;45572;48.804;8.330;2023-04-09T17:21:05;15.20;50.20
3550;DHT22;45572;48.804;8.330;2023-04-09T17:23:33;15.20;50.50
3550;DHT22;45572;48.804;8.330;2023-04-09T17:26:01;15.20;50.80
3550;DHT22;45572;48.804;8.330;2023-04-09T17:28:29;15.20;51.00
3550;DHT22;45572;48.804;8.330;2023-04-09T17:30:57;15.20;51.70
3550;DHT22;45572;48.804;8.330;2023-04-09T17:33:27;15.00;51.70
3550;DHT22;45572;48.804;8.330;2023-04-09T17:35:55;15.10;51.70
3550;DHT22;45572;48.804;8.330;2023-04-09T17:38:24;15.10;52.50
3550;DHT22;45572;48.804;8.330;2023-04-09T17:40:52;15.00;51.20
3550;DHT22;45572;48.804;8.330;2023-04-09T17:43:20;15.00;52.90
3550;DHT22;45572;48.804;8.330;2023-04-09T17:45:48;14.90;53.70
3550;DHT22;45572;48.804;8.330;2023-04-09T17:48:16;14.80;52.20
3550;DHT22;45572;48.804;8.330;2023-04-09T17:50:46;14.80;53.40
3550;DHT22;45572;48.804;8.330;2023-04-09T17:53:14;14.70;53.50
3550;DHT22;45572;48.804;8.330;2023-04-09T17:55:45;14.60;54.70
3550;DHT22;45572;48.804;8.330;2023-04-09T17:58:14;14.50;54.70
3550;DHT22;45572;48.804;8.330;2023-04-09T18:00:45;14.40;56.10
3550;DHT22;45572;48.804;8.330;2023-04-09T18:03:13;14.30;57.40
3550;DHT22;45572;48.804;8.330;2023-04-09T18:05:42;14.20;58.90
3550;DHT22;45572;48.804;8.330;2023-04-09T18:08:12;14.00;59.50
3550;DHT22;45572;48.804;8.330;2023-04-09T18:10:40;13.90;60.90
3550;DHT22;45572;48.804;8.330;2023-04-09T18:13:09;13.80;61.60
3550;DHT22;45572;48.804;8.330;2023-04-09T18:15:39;13.60;61.40
3550;DHT22;45572;48.804;8.330;2023-04-09T18:18:11;13.50;62.00
3550;DHT22;45572;48.804;8.330;2023-04-09T18:20:41;13.40;62.20
3550;DHT22;45572;48.804;8.330;2023-04-09T18:23:14;13.20;63.00
3550;DHT22;45572;48.804;8.330;2023-04-09T18:25:43;13.00;63.50
3550;DHT22;45572;48.804;8.330;2023-04-09T18:28:13;12.90;63.70
3550;DHT22;45572;48.804;8.330;2023-04-09T18:30:44;12.80;64.70
3550;DHT22;45572;48.804;8.330;2023-04-09T18:33:12;12.60;65.00
3550;DHT22;45572;48.804;8.330;2023-04-09T18:35:41;12.50;65.40
3550;DHT22;45572;48.804;8.330;2023-04-09T18:38:11;12.40;65.80
3550;DHT22;45572;48.804;8.330;2023-04-09T18:40:42;12.20;67.30
3550;DHT22;45572;48.804;8.330;2023-04-09T18:43:10;12.00;68.20
3550;DHT22;45572;48.804;8.330;2023-04-09T18:45:38;11.80;68.10
3550;DHT22;45572;48.804;8.330;2023-04-09T18:48:10;11.70;68.80
3550;DHT22;45572;48.804;8.330;2023-04-09T18:50:39;11.50;69.10
3550;DHT22;45572;48.804;8.330;2023-04-09T18:53:07;11.30;70.00
3550;DHT22;45572;48.804;8.330;2023-04-09T18:55:36;11.20;70.10
3550;DHT22;45572;48.804;8.330;2023-04-09T18:58:06;11.10;70.60
3550;DHT22;45572;48.804;8.330;2023-04-09T19:00:39;11.10;70.90
3550;DHT22;45572;48.804;8.330;2023-04-09T19:03:08;11.10;71.40
3550;DHT22;45572;48.804;8.330;2023-04-09T19:05:37;11.00;72.00
3550;DHT22;45572;48.804;8.330;2023-04-09T19:08:08;10.90;72.10
3550;DHT22;45572;48.804;8.330;2023-04-09T19:10:36;10.90;72.10
3550;DHT22;45572;48.804;8.330;2023-04-09T19:13:06;10.80;72.90
3550;DHT22;45572;48.804;8.330;2023-04-09T19:15:34;10.70;73.70
3550;DHT22;45572;48.804;8.330;2023-04-09T19:18:04;10.70;73.80
3550;DHT22;45572;48.804;8.330;2023-04-09T19:20:32;10.70;74.40
3550;DHT22;45572;48.804;8.330;2023-04-09T19:23:00;10.70;73.40
3550;DHT22;45572;48.804;8.330;2023-04-09T19:25:28;10.60;74.10
3550;DHT22;45572;48.804;8.330;2023-04-09T19:27:57;10.50;74.20
3550;DHT22;45572;48.804;8.330;2023-04-09T19:30:26;10.50;74.00
3550;DHT22;45572;48.804;8.330;2023-04-09T19:32:54;10.40;74.50
3550;DHT22;45572;48.804;8.330;2023-04-09T19:35:23;10.30;74.50
3550;DHT22;45572;48.804;8.330;2023-04-09T19:37:51;10.20;74.60
3550;DHT22;45572;48.804;8.330;2023-04-09T19:40:19;10.10;74.40
3550;DHT22;45572;48.804;8.330;2023-04-09T19:42:47;10.10;74.30
3550;DHT22;45572;48.804;8.330;2023-04-09T19:45:16;10.00;74.70
3550;DHT22;45572;48.804;8.330;2023-04-09T19:47:46;10.00;75.30
3550;DHT22;45572;48.804;8.330;2023-04-09T19:50:14;9.90;75.20
3550;DHT22;45572;48.804;8.330;2023-04-09T19:52:45;9.80;75.90
3550;DHT22;45572;48.804;8.330;2023-04-09T19:55:15;9.60;76.30
3550;DHT22;45572;48.804;8.330;2023-04-09T19:57:49;9.60;76.20
3550;DHT22;45572;48.804;8.330;2023-04-09T20:00:17;9.50;76.10
3550;DHT22;45572;48.804;8.330;2023-04-09T20:02:47;9.40;76.60
3550;DHT22;45572;48.804;8.330;2023-04-09T20:05:15;9.40;77.00
3550;DHT22;45572;48.804;8.330;2023-04-09T20:07:46;9.30;77.30
3550;DHT22;45572;48.804;8.330;2023-04-09T20:10:15;9.30;77.20
3550;DHT22;45572;48.804;8.330;2023-04-09T20:12:46;9.30;77.60
3550;DHT22;45572;48.804;8.330;2023-04-09T20:15:15;9.30;77.60
3550;DHT22;45572;48.804;8.330;2023-04-09T20:17:47;9.20;78.30
3550;DHT22;45572;48.804;8.330;2023-04-09T20:20:15;9.10;78.30
3550;DHT22;45572;48.804;8.330;2023-04-09T20:22:46;8.80;78.70
3550;DHT22;45572;48.804;8.330;2023-04-09T20:25:22;8.80;79.30
3550;DHT22;45572;48.804;8.330;2023-04-09T20:27:51;8.80;79.70
3550;DHT22;45572;48.804;8.330;2023-04-09T20:30:20;8.70;79.40
3550;DHT22;45572;48.804;8.330;2023-04-09T20:32:49;8.60;79.80
3550;DHT22;45572;48.804;8.330;2023-04-09T20:35:18;8.60;79.70
3550;DHT22;45572;48.804;8.330;2023-04-09T20:37:46;8.60;79.80
3550;DHT22;45572;48.804;8.330;2023-04-09T20:40:15;8.50;80.10
3550;DHT22;45572;48.804;8.330;2023-04-09T20:42:45;8.50;80.20
3550;DHT22;45572;48.804;8.330;2023-04-09T20:45:13;8.40;80.00
3550;DHT22;45572;48.804;8.330;2023-04-09T20:47:46;8.40;80.40
3550;DHT22;45572;48.804;8.330;2023-04-09T20:50:15;8.40;80.70
3550;DHT22;45572;48.804;8.330;2023-04-09T20:52:46;8.30;80.50
3550;DHT22;45572;48.804;8.330;2023-04-09T20:55:18;8.30;80.50
3550;DHT22;45572;48.804;8.330;2023-04-09T20:57:46;7.90;81.50
3550;DHT22;45572;48.804;8.330;2023-04-09T21:00:15;7.90;81.70
3550;DHT22;45572;48.804;8.330;2023-04-09T21:02:43;7.90;81.90
3550;DHT22;45572;48.804;8.330;2023-04-09T21:05:17;7.90;81.70
3550;DHT22;45572;48.804;8.330;2023-04-09T21:07:51;7.90;81.70
3550;DHT22;45572;48.804;8.330;2023-04-09T21:10:21;7.90;81.70
3550;DHT22;45572;48.804;8.330;2023-04-09T21:12:54;7.80;81.90
3550;DHT22;45572;48.804;8.330;2023-04-09T21:15:24;7.80;82.30
3550;DHT22;45572;48.804;8.330;2023-04-09T21:17:53;7.50;83.10
3550;DHT22;45572;48.804;8.330;2023-04-09T21:20:23;7.50;83.00
3550;DHT22;45572;48.804;8.330;2023-04-09T21:22:51;7.50;82.70
3550;DHT22;45572;48.804;8.330;2023-04-09T21:25:20;7.40;83.10
3550;DHT22;45572;48.804;8.330;2023-04-09T21:27:48;7.40;83.30
3550;DHT22;45572;48.804;8.330;2023-04-09T21:30:16;7.40;83.20
3550;DHT22;45572;48.804;8.330;2023-04-09T21:32:46;7.50;82.80
3550;DHT22;45572;48.804;8.330;2023-04-09T21:35:14;7.50;82.70
3550;DHT22;45572;48.804;8.330;2023-04-09T21:37:44;7.50;82.70
3550;DHT22;45572;48.804;8.330;2023-04-09T21:40:12;7.40;82.50
3550;DHT22;45572;48.804;8.330;2023-04-09T21:42:43;7.50;82.60
3550;DHT22;45572;48.804;8.330;2023-04-09T21:45:11;7.50;82.70
3550;DHT22;45572;48.804;8.330;2023-04-09T21:47:39;7.50;82.00
3550;DHT22;45572;48.804;8.330;2023-04-09T21:50:08;7.40;82.10
3550;DHT22;45572;48.804;8.330;2023-04-09T21:52:37;7.40;81.70
3550;DHT22;45572;48.804;8.330;2023-04-09T21:55:07;7.40;81.90
3550;DHT22;45572;48.804;8.330;2023-04-09T21:57:36;7.40;82.00
3550;DHT22;45572;48.804;8.330;2023-04-09T22:00:04;7.20;82.70
3550;DHT22;45572;48.804;8.330;2023-04-09T22:02:35;7.20;82.90
3550;DHT22;45572;48.804;8.330;2023-04-09T22:05:04;7.20;82.90
3550;DHT22;45572;48.804;8.330;2023-04-09T22:07:34;7.20;83.00
3550;DHT22;45572;48.804;8.330;2023-04-09T22:10:03;7.10;83.10
3550;DHT22;45572;48.804;8.330;2023-04-09T22:12:33;7.10;83.30
3550;DHT22;45572;48.804;8.330;2023-04-09T22:15:03;7.10;83.50
3550;DHT22;45572;48.804;8.330;2023-04-09T22:17:31;7.10;83.30
3550;DHT22;45572;48.804;8.330;2023-04-09T22:19:59;7.00;83.80
3550;DHT22;45572;48.804;8.330;2023-04-09T22:22:28;7.00;84.20
3550;DHT22;45572;48.804;8.330;2023-04-09T22:24:57;6.90;84.00
3550;DHT22;45572;48.804;8.330;2023-04-09T22:27:25;7.00;84.00
3550;DHT22;45572;48.804;8.330;2023-04-09T22:29:54;7.00;83.90
3550;DHT22;45572;48.804;8.330;2023-04-09T22:32:22;7.00;83.60
3550;DHT22;45572;48.804;8.330;2023-04-09T22:34:52;7.00;83.70
3550;DHT22;45572;48.804;8.330;2023-04-09T22:37:20;7.00;83.50
3550;DHT22;45572;48.804;8.330;2023-04-09T22:39:48;6.90;84.00
3550;DHT22;45572;48.804;8.330;2023-04-09T22:42:17;6.80;84.40
3550;DHT22;45572;48.804;8.330;2023-04-09T22:44:45;6.70;84.50
3550;DHT22;45572;48.804;8.330;2023-04-09T22:47:15;6.60;85.00
3550;DHT22;45572;48.804;8.330;2023-04-09T22:49:43;6.60;84.90
3550;DHT22;45572;48.804;8.330;2023-04-09T22:52:11;6.60;84.90
3550;DHT22;45572;48.804;8.330;2023-04-09T22:54:39;6.70;84.90
3550;DHT22;45572;48.804;8.330;2023-04-09T22:57:08;6.60;84.80
3550;DHT22;45572;48.804;8.330;2023-04-09T22:59:36;6.60;84.90
3550;DHT22;45572;48.804;8.330;2023-04-09T23:02:06;6.50;85.10
3550;DHT22;45572;48.804;8.330;2023-04-09T23:04:36;6.50;85.40
3550;DHT22;45572;48.804;8.330;2023-04-09T23:07:04;6.50;85.30
3550;DHT22;45572;48.804;8.330;2023-04-09T23:09:33;6.60;85.40
3550;DHT22;45572;48.804;8.330;2023-04-09T23:12:01;6.50;85.40
3550;DHT22;45572;48.804;8.330;2023-04-09T23:14:29;6.40;85.30
3550;DHT22;45572;48.804;8.330;2023-04-09T23:16:57;6.40;85.50
3550;DHT22;45572;48.804;8.330;2023-04-09T23:19:25;6.40;85.60
3550;DHT22;45572;48.804;8.330;2023-04-09T23:21:54;6.30;85.60
3550;DHT22;45572;48.804;8.330;2023-04-09T23:24:23;6.30;85.90
3550;DHT22;45572;48.804;8.330;2023-04-09T23:26:51;6.20;85.80
3550;DHT22;45572;48.804;8.330;2023-04-09T23:29:18;6.20;86.10
3550;DHT22;45572;48.804;8.330;2023-04-09T23:31:46;6.20;86.40
3550;DHT22;45572;48.804;8.330;2023-04-09T23:34:14;6.10;86.20
3550;DHT22;45572;48.804;8.330;2023-04-09T23:36:42;6.20;86.20
3550;DHT22;45572;48.804;8.330;2023-04-09T23:39:12;6.10;86.20
3550;DHT22;45572;48.804;8.330;2023-04-09T23:41:40;6.00;86.30
3550;DHT22;45572;48.804;8.330;2023-04-09T23:44:07;6.00;86.60
3550;DHT22;45572;48.804;8.330;2023-04-09T23:46:35;6.00;86.90